Terminal Aerodrome Forecast
Issued by NWS Louisville, KY

Home | Current Version | Previous Version | Text Only | Print | Product List | Glossary On
Versions: 1 2 3 4 5 6 7 8 9 10 11 12 13 14 15 16 17
000
FTUS43 KLMK 291900 AAA
TAFSDF
TAF AMD
KSDF 291932Z 2920/3024 18012G22KT P6SM SCT200
     FM292300 19012KT P6SM BKN040 BKN100
     FM300100 21011KT 5SM -SHRA BR SCT025 BKN035
     FM300200 23011KT 4SM -SHRA BR BKN025
     FM300900 29008KT P6SM SCT020=

USA.gov is the U.S. government's official web portal to all federal, state and local government web resources and services.